sensor_id;sensor_type;location;lat;lon;timestamp;temperature;humidity
11284;DHT22;5698;47.332;11.180;2023-01-16T00:01:44;-1.90;99.90
11284;DHT22;5698;47.332;11.180;2023-01-16T00:04:11;-1.90;99.90
11284;DHT22;5698;47.332;11.180;2023-01-16T00:06:38;-1.90;99.90
11284;DHT22;5698;47.332;11.180;2023-01-16T00:09:06;-1.90;99.90
11284;DHT22;5698;47.332;11.180;2023-01-16T00:11:34;-1.90;99.90
11284;DHT22;5698;47.332;11.180;2023-01-16T00:14:02;-2.00;99.90
11284;DHT22;5698;47.332;11.180;2023-01-16T00:16:29;-2.00;99.90
11284;DHT22;5698;47.332;11.180;2023-01-16T00:18:56;-1.90;99.90
11284;DHT22;5698;47.332;11.180;2023-01-16T00:21:23;-1.90;99.90
11284;DHT22;5698;47.332;11.180;2023-01-16T00:23:52;-1.90;99.90
11284;DHT22;5698;47.332;11.180;2023-01-16T00:26:19;-1.90;99.90
11284;DHT22;5698;47.332;11.180;2023-01-16T00:28:48;-1.90;99.90
11284;DHT22;5698;47.332;11.180;2023-01-16T00:31:15;-2.00;99.90
11284;DHT22;5698;47.332;11.180;2023-01-16T00:33:42;-2.00;99.90
11284;DHT22;5698;47.332;11.180;2023-01-16T00:36:09;-2.00;99.90
11284;DHT22;5698;47.332;11.180;2023-01-16T00:38:37;-2.00;99.90
11284;DHT22;5698;47.332;11.180;2023-01-16T00:41:04;-2.00;99.90
11284;DHT22;5698;47.332;11.180;2023-01-16T00:43:31;-2.00;99.90
11284;DHT22;5698;47.332;11.180;2023-01-16T00:46:00;-2.00;99.90
11284;DHT22;5698;47.332;11.180;2023-01-16T00:48:27;-2.00;99.90
11284;DHT22;5698;47.332;11.180;2023-01-16T00:50:54;-2.00;99.90
11284;DHT22;5698;47.332;11.180;2023-01-16T00:53:21;-2.00;99.90
11284;DHT22;5698;47.332;11.180;2023-01-16T00:55:49;-2.00;99.90
11284;DHT22;5698;47.332;11.180;2023-01-16T00:58:16;-2.10;99.90
11284;DHT22;5698;47.332;11.180;2023-01-16T01:00:43;-2.10;99.90
11284;DHT22;5698;47.332;11.180;2023-01-16T01:03:12;-2.10;99.90
11284;DHT22;5698;47.332;11.180;2023-01-16T01:05:39;-2.10;99.90
11284;DHT22;5698;47.332;11.180;2023-01-16T01:08:06;-2.00;99.90
11284;DHT22;5698;47.332;11.180;2023-01-16T01:10:35;-2.10;99.90
11284;DHT22;5698;47.332;11.180;2023-01-16T01:13:02;-2.00;99.90
11284;DHT22;5698;47.332;11.180;2023-01-16T01:15:29;-2.00;99.90
11284;DHT22;5698;47.332;11.180;2023-01-16T01:17:56;-1.90;99.90
11284;DHT22;5698;47.332;11.180;2023-01-16T01:20:24;-2.00;99.90
11284;DHT22;5698;47.332;11.180;2023-01-16T01:22:51;-2.00;99.90
11284;DHT22;5698;47.332;11.180;2023-01-16T01:25:18;-2.00;99.90
11284;DHT22;5698;47.332;11.180;2023-01-16T01:27:45;-2.00;99.90
11284;DHT22;5698;47.332;11.180;2023-01-16T01:30:12;-2.00;99.90
11284;DHT22;5698;47.332;11.180;2023-01-16T01:32:39;-2.00;99.90
11284;DHT22;5698;47.332;11.180;2023-01-16T01:35:07;-2.10;99.90
11284;DHT22;5698;47.332;11.180;2023-01-16T01:37:36;-2.10;99.90
11284;DHT22;5698;47.332;11.180;2023-01-16T01:40:04;-2.10;99.90
11284;DHT22;5698;47.332;11.180;2023-01-16T01:42:36;-2.10;99.90
11284;DHT22;5698;47.332;11.180;2023-01-16T01:45:15;-2.00;99.90
11284;DHT22;5698;47.332;11.180;2023-01-16T01:47:45;-2.10;99.90
11284;DHT22;5698;47.332;11.180;2023-01-16T01:50:20;-2.10;99.90
11284;DHT22;5698;47.332;11.180;2023-01-16T01:52:49;-2.00;99.90
11284;DHT22;5698;47.332;11.180;2023-01-16T01:55:18;-2.10;99.90
11284;DHT22;5698;47.332;11.180;2023-01-16T01:57:49;-2.10;99.90
11284;DHT22;5698;47.332;11.180;2023-01-16T02:00:21;-2.20;99.90
11284;DHT22;5698;47.332;11.180;2023-01-16T02:02:52;-2.20;99.90
11284;DHT22;5698;47.332;11.180;2023-01-16T02:05:23;-2.20;99.90
11284;DHT22;5698;47.332;11.180;2023-01-16T02:07:53;-2.30;99.90
11284;DHT22;5698;47.332;11.180;2023-01-16T02:10:27;-2.30;99.90
11284;DHT22;5698;47.332;11.180;2023-01-16T02:12:56;-2.30;99.90
11284;DHT22;5698;47.332;11.180;2023-01-16T02:15:24;-2.30;99.90
11284;DHT22;5698;47.332;11.180;2023-01-16T02:17:51;-2.30;99.90
11284;DHT22;5698;47.332;11.180;2023-01-16T02:20:48;-2.30;99.90
11284;DHT22;5698;47.332;11.180;2023-01-16T02:26:54;-2.30;99.90
11284;DHT22;5698;47.332;11.180;2023-01-16T02:30:03;-2.30;99.90
11284;DHT22;5698;47.332;11.180;2023-01-16T02:32:54;-2.30;99.90
11284;DHT22;5698;47.332;11.180;2023-01-16T02:35:37;-2.20;99.90
11284;DHT22;5698;47.332;11.180;2023-01-16T02:38:10;-2.20;99.90
11284;DHT22;5698;47.332;11.180;2023-01-16T02:40:45;-2.30;99.90
11284;DHT22;5698;47.332;11.180;2023-01-16T02:43:19;-2.30;99.90
11284;DHT22;5698;47.332;11.180;2023-01-16T02:45:52;-2.30;99.90
11284;DHT22;5698;47.332;11.180;2023-01-16T02:48:31;-2.30;99.90
11284;DHT22;5698;47.332;11.180;2023-01-16T02:51:04;-2.30;99.90
11284;DHT22;5698;47.332;11.180;2023-01-16T02:53:39;-2.30;99.90
11284;DHT22;5698;47.332;11.180;2023-01-16T02:56:10;-2.30;99.90
11284;DHT22;5698;47.332;11.180;2023-01-16T02:58:42;-2.40;99.90
11284;DHT22;5698;47.332;11.180;2023-01-16T03:01:10;-2.40;99.90
11284;DHT22;5698;47.332;11.180;2023-01-16T03:03:41;-2.40;99.90
11284;DHT22;5698;47.332;11.180;2023-01-16T03:06:39;-2.40;99.90
11284;DHT22;5698;47.332;11.180;2023-01-16T03:09:29;-2.50;99.90
11284;DHT22;5698;47.332;11.180;2023-01-16T03:12:15;-2.50;99.90
11284;DHT22;5698;47.332;11.180;2023-01-16T03:14:48;-2.50;99.90
11284;DHT22;5698;47.332;11.180;2023-01-16T03:17:26;-2.60;99.90
11284;DHT22;5698;47.332;11.180;2023-01-16T03:20:09;-2.60;99.90
11284;DHT22;5698;47.332;11.180;2023-01-16T03:22:41;-2.60;99.90
11284;DHT22;5698;47.332;11.180;2023-01-16T03:25:21;-2.70;99.90
11284;DHT22;5698;47.332;11.180;2023-01-16T03:27:56;-2.80;99.90
11284;DHT22;5698;47.332;11.180;2023-01-16T03:30:31;-2.80;99.90
11284;DHT22;5698;47.332;11.180;2023-01-16T03:33:03;-2.80;99.90
11284;DHT22;5698;47.332;11.180;2023-01-16T03:35:36;-2.80;99.90
11284;DHT22;5698;47.332;11.180;2023-01-16T03:38:07;-2.90;99.90
11284;DHT22;5698;47.332;11.180;2023-01-16T03:40:38;-2.90;99.90
11284;DHT22;5698;47.332;11.180;2023-01-16T03:43:10;-3.10;99.90
11284;DHT22;5698;47.332;11.180;2023-01-16T03:45:41;-3.10;99.90
11284;DHT22;5698;47.332;11.180;2023-01-16T03:48:13;-3.20;99.90
11284;DHT22;5698;47.332;11.180;2023-01-16T03:50:48;-3.20;99.90
11284;DHT22;5698;47.332;11.180;2023-01-16T03:53:18;-3.20;99.90
11284;DHT22;5698;47.332;11.180;2023-01-16T03:55:52;-3.20;99.90
11284;DHT22;5698;47.332;11.180;2023-01-16T03:58:28;-3.10;99.90
11284;DHT22;5698;47.332;11.180;2023-01-16T04:01:02;-3.10;99.90
11284;DHT22;5698;47.332;11.180;2023-01-16T04:03:36;-3.10;99.90
11284;DHT22;5698;47.332;11.180;2023-01-16T04:06:08;-3.10;99.90
11284;DHT22;5698;47.332;11.180;2023-01-16T04:08:39;-3.10;99.90
11284;DHT22;5698;47.332;11.180;2023-01-16T04:11:08;-3.10;99.90
11284;DHT22;5698;47.332;11.180;2023-01-16T04:13:37;-3.00;99.90
11284;DHT22;5698;47.332;11.180;2023-01-16T04:16:08;-3.00;99.90
11284;DHT22;5698;47.332;11.180;2023-01-16T04:18:36;-3.00;99.90
11284;DHT22;5698;47.332;11.180;2023-01-16T04:21:06;-3.00;99.90
11284;DHT22;5698;47.332;11.180;2023-01-16T04:23:34;-3.00;99.90
11284;DHT22;5698;47.332;11.180;2023-01-16T04:26:02;-3.00;99.90
11284;DHT22;5698;47.332;11.180;2023-01-16T04:28:28;-3.10;99.90
11284;DHT22;5698;47.332;11.180;2023-01-16T04:30:55;-3.10;99.90
11284;DHT22;5698;47.332;11.180;2023-01-16T04:33:22;-3.10;99.90
11284;DHT22;5698;47.332;11.180;2023-01-16T04:35:49;-3.10;99.90
11284;DHT22;5698;47.332;11.180;2023-01-16T04:38:18;-3.10;99.90
11284;DHT22;5698;47.332;11.180;2023-01-16T04:40:45;-3.10;99.90
11284;DHT22;5698;47.332;11.180;2023-01-16T04:43:12;-3.10;99.90
11284;DHT22;5698;47.332;11.180;2023-01-16T04:45:39;-3.10;99.90
11284;DHT22;5698;47.332;11.180;2023-01-16T04:48:06;-3.10;99.90
11284;DHT22;5698;47.332;11.180;2023-01-16T04:50:33;-3.00;99.90
11284;DHT22;5698;47.332;11.180;2023-01-16T04:53:00;-3.10;99.90
11284;DHT22;5698;47.332;11.180;2023-01-16T04:55:28;-3.10;99.90
11284;DHT22;5698;47.332;11.180;2023-01-16T04:57:55;-3.10;99.90
11284;DHT22;5698;47.332;11.180;2023-01-16T05:00:22;-3.10;99.90
11284;DHT22;5698;47.332;11.180;2023-01-16T05:02:49;-3.10;99.90
11284;DHT22;5698;47.332;11.180;2023-01-16T05:05:16;-3.10;99.90
11284;DHT22;5698;47.332;11.180;2023-01-16T05:07:43;-3.10;99.90
11284;DHT22;5698;47.332;11.180;2023-01-16T05:10:10;-3.00;99.90
11284;DHT22;5698;47.332;11.180;2023-01-16T05:12:39;-3.10;99.90
11284;DHT22;5698;47.332;11.180;2023-01-16T05:15:06;-2.80;99.90
11284;DHT22;5698;47.332;11.180;2023-01-16T05:17:33;-3.00;99.90
11284;DHT22;5698;47.332;11.180;2023-01-16T05:20:00;-3.00;99.90
11284;DHT22;5698;47.332;11.180;2023-01-16T05:22:28;-3.00;99.90
11284;DHT22;5698;47.332;11.180;2023-01-16T05:24:55;-3.00;99.90
11284;DHT22;5698;47.332;11.180;2023-01-16T05:27:21;-3.00;99.90
11284;DHT22;5698;47.332;11.180;2023-01-16T05:29:50;-3.00;99.90
11284;DHT22;5698;47.332;11.180;2023-01-16T05:32:17;-3.00;99.90
11284;DHT22;5698;47.332;11.180;2023-01-16T05:34:44;-3.00;99.90
11284;DHT22;5698;47.332;11.180;2023-01-16T05:37:11;-2.90;99.90
11284;DHT22;5698;47.332;11.180;2023-01-16T05:39:37;-2.90;99.90
11284;DHT22;5698;47.332;11.180;2023-01-16T05:42:04;-2.80;99.90
11284;DHT22;5698;47.332;11.180;2023-01-16T05:44:46;-2.80;99.90
11284;DHT22;5698;47.332;11.180;2023-01-16T05:47:15;-2.70;99.90
11284;DHT22;5698;47.332;11.180;2023-01-16T05:49:42;-2.70;99.90
11284;DHT22;5698;47.332;11.180;2023-01-16T05:52:08;-2.70;99.90
11284;DHT22;5698;47.332;11.180;2023-01-16T05:54:36;-2.60;99.90
11284;DHT22;5698;47.332;11.180;2023-01-16T05:57:03;-2.70;99.90
11284;DHT22;5698;47.332;11.180;2023-01-16T05:59:31;-2.60;99.90
11284;DHT22;5698;47.332;11.180;2023-01-16T06:01:58;-2.60;99.90
11284;DHT22;5698;47.332;11.180;2023-01-16T06:04:27;-2.60;99.90
11284;DHT22;5698;47.332;11.180;2023-01-16T06:06:54;-2.60;99.90
11284;DHT22;5698;47.332;11.180;2023-01-16T06:09:20;-2.50;99.90
11284;DHT22;5698;47.332;11.180;2023-01-16T06:11:48;-2.50;99.90
11284;DHT22;5698;47.332;11.180;2023-01-16T06:14:15;-2.40;99.90
11284;DHT22;5698;47.332;11.180;2023-01-16T06:16:42;-2.40;99.90
11284;DHT22;5698;47.332;11.180;2023-01-16T06:19:09;-2.40;99.90
11284;DHT22;5698;47.332;11.180;2023-01-16T06:21:37;-2.40;99.90
11284;DHT22;5698;47.332;11.180;2023-01-16T06:24:05;-2.40;99.90
11284;DHT22;5698;47.332;11.180;2023-01-16T06:26:32;-2.30;99.90
11284;DHT22;5698;47.332;11.180;2023-01-16T06:28:59;-2.30;99.90
11284;DHT22;5698;47.332;11.180;2023-01-16T06:31:26;-2.40;99.90
11284;DHT22;5698;47.332;11.180;2023-01-16T06:33:53;-2.40;99.90
11284;DHT22;5698;47.332;11.180;2023-01-16T06:36:20;-2.40;99.90
11284;DHT22;5698;47.332;11.180;2023-01-16T06:38:49;-2.40;99.90
11284;DHT22;5698;47.332;11.180;2023-01-16T06:41:16;-2.40;99.90
11284;DHT22;5698;47.332;11.180;2023-01-16T06:43:43;-2.40;99.90
11284;DHT22;5698;47.332;11.180;2023-01-16T06:46:09;-2.30;99.90
11284;DHT22;5698;47.332;11.180;2023-01-16T06:48:36;-2.30;99.90
11284;DHT22;5698;47.332;11.180;2023-01-16T06:51:03;-2.20;99.90
11284;DHT22;5698;47.332;11.180;2023-01-16T06:53:30;-2.40;99.90
11284;DHT22;5698;47.332;11.180;2023-01-16T06:55:59;-2.40;99.90
11284;DHT22;5698;47.332;11.180;2023-01-16T06:58:26;-2.40;99.90
11284;DHT22;5698;47.332;11.180;2023-01-16T07:00:53;-2.40;99.90
11284;DHT22;5698;47.332;11.180;2023-01-16T07:03:21;-2.40;99.90
11284;DHT22;5698;47.332;11.180;2023-01-16T07:05:48;-2.30;99.90
11284;DHT22;5698;47.332;11.180;2023-01-16T07:08:15;-2.30;99.90
11284;DHT22;5698;47.332;11.180;2023-01-16T07:10:42;-2.40;99.90
11284;DHT22;5698;47.332;11.180;2023-01-16T07:13:11;-2.50;99.90
11284;DHT22;5698;47.332;11.180;2023-01-16T07:15:46;-2.50;99.90
11284;DHT22;5698;47.332;11.180;2023-01-16T07:18:31;-2.50;99.90
11284;DHT22;5698;47.332;11.180;2023-01-16T07:21:15;-2.50;99.90
11284;DHT22;5698;47.332;11.180;2023-01-16T07:24:02;-2.50;99.90
11284;DHT22;5698;47.332;11.180;2023-01-16T07:26:30;-2.50;99.90
11284;DHT22;5698;47.332;11.180;2023-01-16T07:28:59;-2.50;99.90
11284;DHT22;5698;47.332;11.180;2023-01-16T07:31:28;-2.50;99.90
11284;DHT22;5698;47.332;11.180;2023-01-16T07:33:56;-2.50;99.90
11284;DHT22;5698;47.332;11.180;2023-01-16T07:36:23;-2.40;99.90
11284;DHT22;5698;47.332;11.180;2023-01-16T07:38:50;-2.40;99.90
11284;DHT22;5698;47.332;11.180;2023-01-16T07:41:17;-2.50;99.90
11284;DHT22;5698;47.332;11.180;2023-01-16T07:43:43;-2.40;99.90
11284;DHT22;5698;47.332;11.180;2023-01-16T07:46:12;-2.50;99.90
11284;DHT22;5698;47.332;11.180;2023-01-16T07:48:39;-2.50;99.90
11284;DHT22;5698;47.332;11.180;2023-01-16T07:51:06;-2.50;99.90
11284;DHT22;5698;47.332;11.180;2023-01-16T07:53:33;-2.50;99.90
11284;DHT22;5698;47.332;11.180;2023-01-16T07:56:01;-2.50;99.90
11284;DHT22;5698;47.332;11.180;2023-01-16T07:58:29;-2.40;99.90
11284;DHT22;5698;47.332;11.180;2023-01-16T08:00:56;-2.40;99.90
11284;DHT22;5698;47.332;11.180;2023-01-16T08:03:25;-2.30;99.90
11284;DHT22;5698;47.332;11.180;2023-01-16T08:05:55;-2.30;99.90
11284;DHT22;5698;47.332;11.180;2023-01-16T08:08:22;-2.30;99.90
11284;DHT22;5698;47.332;11.180;2023-01-16T08:10:53;-2.30;99.90
11284;DHT22;5698;47.332;11.180;2023-01-16T08:13:20;-2.30;99.90
11284;DHT22;5698;47.332;11.180;2023-01-16T08:15:47;-2.30;99.90
11284;DHT22;5698;47.332;11.180;2023-01-16T08:18:16;-2.30;99.90
11284;DHT22;5698;47.332;11.180;2023-01-16T08:20:44;-2.20;99.90
11284;DHT22;5698;47.332;11.180;2023-01-16T08:23:12;-2.10;99.90
11284;DHT22;5698;47.332;11.180;2023-01-16T08:25:39;-2.10;99.90
11284;DHT22;5698;47.332;11.180;2023-01-16T08:28:06;-1.90;99.90
11284;DHT22;5698;47.332;11.180;2023-01-16T08:30:32;-2.10;99.90
11284;DHT22;5698;47.332;11.180;2023-01-16T08:33:00;-2.20;99.90
11284;DHT22;5698;47.332;11.180;2023-01-16T08:35:28;-2.20;99.90
11284;DHT22;5698;47.332;11.180;2023-01-16T08:37:56;-2.40;99.90
11284;DHT22;5698;47.332;11.180;2023-01-16T08:40:23;-2.40;99.90
11284;DHT22;5698;47.332;11.180;2023-01-16T08:42:50;-2.40;99.90
11284;DHT22;5698;47.332;11.180;2023-01-16T08:45:34;-2.40;99.90
11284;DHT22;5698;47.332;11.180;2023-01-16T08:48:23;-2.30;99.90
11284;DHT22;5698;47.332;11.180;2023-01-16T08:51:14;-2.20;99.90
11284;DHT22;5698;47.332;11.180;2023-01-16T08:53:54;-2.30;99.90
11284;DHT22;5698;47.332;11.180;2023-01-16T08:56:21;-2.30;99.90
11284;DHT22;5698;47.332;11.180;2023-01-16T08:58:48;-2.30;99.90
11284;DHT22;5698;47.332;11.180;2023-01-16T09:01:16;-2.40;99.90
11284;DHT22;5698;47.332;11.180;2023-01-16T09:03:44;-2.40;99.90
11284;DHT22;5698;47.332;11.180;2023-01-16T09:06:11;-2.50;99.90
11284;DHT22;5698;47.332;11.180;2023-01-16T09:08:38;-2.50;99.90
11284;DHT22;5698;47.332;11.180;2023-01-16T09:11:06;-2.50;99.90
11284;DHT22;5698;47.332;11.180;2023-01-16T09:13:51;-2.40;99.90
11284;DHT22;5698;47.332;11.180;2023-01-16T09:16:20;-2.20;99.90
11284;DHT22;5698;47.332;11.180;2023-01-16T09:18:47;-2.10;99.90
11284;DHT22;5698;47.332;11.180;2023-01-16T09:21:15;-1.90;99.90
11284;DHT22;5698;47.332;11.180;2023-01-16T09:23:44;-1.70;99.90
11284;DHT22;5698;47.332;11.180;2023-01-16T09:26:12;-1.50;99.90
11284;DHT22;5698;47.332;11.180;2023-01-16T09:28:39;-1.30;99.90
11284;DHT22;5698;47.332;11.180;2023-01-16T09:31:06;-1.30;99.90
11284;DHT22;5698;47.332;11.180;2023-01-16T09:33:33;-1.30;99.90
11284;DHT22;5698;47.332;11.180;2023-01-16T09:36:02;-1.20;99.90
11284;DHT22;5698;47.332;11.180;2023-01-16T09:38:29;-1.10;99.90
11284;DHT22;5698;47.332;11.180;2023-01-16T09:40:58;-1.00;99.90
11284;DHT22;5698;47.332;11.180;2023-01-16T09:43:34;-0.80;99.90
11284;DHT22;5698;47.332;11.180;2023-01-16T09:46:03;-0.50;99.90
11284;DHT22;5698;47.332;11.180;2023-01-16T09:48:33;-0.40;99.90
11284;DHT22;5698;47.332;11.180;2023-01-16T09:51:04;-0.30;99.90
11284;DHT22;5698;47.332;11.180;2023-01-16T09:53:41;-0.30;99.90
11284;DHT22;5698;47.332;11.180;2023-01-16T09:56:32;0.00;99.90
11284;DHT22;5698;47.332;11.180;2023-01-16T09:59:29;0.40;99.90
11284;DHT22;5698;47.332;11.180;2023-01-16T10:02:05;0.70;99.90
11284;DHT22;5698;47.332;11.180;2023-01-16T10:04:34;1.00;99.90
11284;DHT22;5698;47.332;11.180;2023-01-16T10:09:58;1.30;99.90
11284;DHT22;5698;47.332;11.180;2023-01-16T10:12:32;1.80;99.90
11284;DHT22;5698;47.332;11.180;2023-01-16T10:15:14;2.30;99.90
11284;DHT22;5698;47.332;11.180;2023-01-16T10:17:50;2.90;99.90
11284;DHT22;5698;47.332;11.180;2023-01-16T10:20:42;3.20;99.90
11284;DHT22;5698;47.332;11.180;2023-01-16T10:23:25;3.30;99.90
11284;DHT22;5698;47.332;11.180;2023-01-16T10:26:02;3.40;99.90
11284;DHT22;5698;47.332;11.180;2023-01-16T10:28:46;3.20;99.90
11284;DHT22;5698;47.332;11.180;2023-01-16T10:31:23;3.40;99.90
11284;DHT22;5698;47.332;11.180;2023-01-16T10:33:54;3.60;99.90
11284;DHT22;5698;47.332;11.180;2023-01-16T10:36:26;3.80;99.90
11284;DHT22;5698;47.332;11.180;2023-01-16T10:38:57;4.10;99.90
11284;DHT22;5698;47.332;11.180;2023-01-16T10:41:28;4.40;99.90
11284;DHT22;5698;47.332;11.180;2023-01-16T10:44:27;4.70;99.90
11284;DHT22;5698;47.332;11.180;2023-01-16T10:47:16;4.90;99.90
11284;DHT22;5698;47.332;11.180;2023-01-16T10:50:00;5.40;99.90
11284;DHT22;5698;47.332;11.180;2023-01-16T10:52:35;5.20;99.90
11284;DHT22;5698;47.332;11.180;2023-01-16T10:55:04;5.20;99.90
11284;DHT22;5698;47.332;11.180;2023-01-16T10:57:31;5.10;99.90
11284;DHT22;5698;47.332;11.180;2023-01-16T11:00:02;4.90;99.90
11284;DHT22;5698;47.332;11.180;2023-01-16T11:02:33;5.10;99.90
11284;DHT22;5698;47.332;11.180;2023-01-16T11:05:01;5.50;99.90
11284;DHT22;5698;47.332;11.180;2023-01-16T11:07:29;5.70;99.90
11284;DHT22;5698;47.332;11.180;2023-01-16T11:09:57;5.40;99.90
11284;DHT22;5698;47.332;11.180;2023-01-16T11:12:29;5.60;99.90
11284;DHT22;5698;47.332;11.180;2023-01-16T11:15:20;5.60;99.90
11284;DHT22;5698;47.332;11.180;2023-01-16T11:18:20;5.80;99.90
11284;DHT22;5698;47.332;11.180;2023-01-16T11:20:59;6.20;99.90
11284;DHT22;5698;47.332;11.180;2023-01-16T11:23:34;6.50;99.90
11284;DHT22;5698;47.332;11.180;2023-01-16T11:26:02;6.60;99.90
11284;DHT22;5698;47.332;11.180;2023-01-16T11:28:31;6.80;99.90
11284;DHT22;5698;47.332;11.180;2023-01-16T11:31:01;7.00;99.90
11284;DHT22;5698;47.332;11.180;2023-01-16T11:33:37;7.20;99.90
11284;DHT22;5698;47.332;11.180;2023-01-16T11:36:07;7.30;99.90
11284;DHT22;5698;47.332;11.180;2023-01-16T11:38:36;7.30;99.90
11284;DHT22;5698;47.332;11.180;2023-01-16T11:41:05;6.50;97.30
11284;DHT22;5698;47.332;11.180;2023-01-16T11:43:34;6.30;99.30
11284;DHT22;5698;47.332;11.180;2023-01-16T11:46:33;6.00;98.10
11284;DHT22;5698;47.332;11.180;2023-01-16T11:49:04;6.00;99.90
11284;DHT22;5698;47.332;11.180;2023-01-16T11:51:38;5.80;98.30
11284;DHT22;5698;47.332;11.180;2023-01-16T11:54:12;5.90;99.90
11284;DHT22;5698;47.332;11.180;2023-01-16T11:56:50;5.90;99.90
11284;DHT22;5698;47.332;11.180;2023-01-16T11:59:33;6.00;99.90
11284;DHT22;5698;47.332;11.180;2023-01-16T12:02:11;6.00;98.70
11284;DHT22;5698;47.332;11.180;2023-01-16T12:04:53;6.10;99.90
11284;DHT22;5698;47.332;11.180;2023-01-16T12:07:43;6.00;98.90
11284;DHT22;5698;47.332;11.180;2023-01-16T12:10:24;5.80;98.50
11284;DHT22;5698;47.332;11.180;2023-01-16T12:13:00;5.50;97.20
11284;DHT22;5698;47.332;11.180;2023-01-16T12:16:00;5.40;99.30
11284;DHT22;5698;47.332;11.180;2023-01-16T12:18:37;5.30;99.70
11284;DHT22;5698;47.332;11.180;2023-01-16T12:21:16;5.40;99.90
11284;DHT22;5698;47.332;11.180;2023-01-16T12:24:09;5.40;99.90
11284;DHT22;5698;47.332;11.180;2023-01-16T12:26:49;5.30;98.30
11284;DHT22;5698;47.332;11.180;2023-01-16T12:29:30;5.20;98.90
11284;DHT22;5698;47.332;11.180;2023-01-16T12:32:08;5.00;97.80
11284;DHT22;5698;47.332;11.180;2023-01-16T12:37:52;4.40;98.90
11284;DHT22;5698;47.332;11.180;2023-01-16T12:40:29;3.90;99.00
11284;DHT22;5698;47.332;11.180;2023-01-16T12:43:12;3.20;99.80
11284;DHT22;5698;47.332;11.180;2023-01-16T12:45:49;3.30;99.90
11284;DHT22;5698;47.332;11.180;2023-01-16T12:48:41;3.40;99.90
11284;DHT22;5698;47.332;11.180;2023-01-16T12:51:25;3.50;99.90
11284;DHT22;5698;47.332;11.180;2023-01-16T12:57:19;3.50;99.90
11284;DHT22;5698;47.332;11.180;2023-01-16T12:59:56;3.60;99.90
11284;DHT22;5698;47.332;11.180;2023-01-16T13:02:30;3.70;99.90
11284;DHT22;5698;47.332;11.180;2023-01-16T13:05:02;3.80;99.90
11284;DHT22;5698;47.332;11.180;2023-01-16T13:07:33;3.80;99.90
11284;DHT22;5698;47.332;11.180;2023-01-16T13:10:10;3.80;99.90
11284;DHT22;5698;47.332;11.180;2023-01-16T13:12:57;3.80;99.90
11284;DHT22;5698;47.332;11.180;2023-01-16T13:15:45;3.80;99.90
11284;DHT22;5698;47.332;11.180;2023-01-16T13:18:19;3.60;99.00
11284;DHT22;5698;47.332;11.180;2023-01-16T13:20:51;3.60;99.90
11284;DHT22;5698;47.332;11.180;2023-01-16T13:23:22;3.50;99.90
11284;DHT22;5698;47.332;11.180;2023-01-16T13:25:54;3.30;99.90
11284;DHT22;5698;47.332;11.180;2023-01-16T13:28:27;3.40;99.90
11284;DHT22;5698;47.332;11.180;2023-01-16T13:30:59;3.30;99.90
11284;DHT22;5698;47.332;11.180;2023-01-16T13:33:29;3.40;99.90
11284;DHT22;5698;47.332;11.180;2023-01-16T13:36:03;3.40;99.90
11284;DHT22;5698;47.332;11.180;2023-01-16T13:39:03;3.40;99.90
11284;DHT22;5698;47.332;11.180;2023-01-16T13:41:34;3.50;99.90
11284;DHT22;5698;47.332;11.180;2023-01-16T13:44:07;3.50;99.90
11284;DHT22;5698;47.332;11.180;2023-01-16T13:47:03;3.50;99.90
11284;DHT22;5698;47.332;11.180;2023-01-16T13:49:31;3.40;99.90
11284;DHT22;5698;47.332;11.180;2023-01-16T13:52:00;3.30;99.90
11284;DHT22;5698;47.332;11.180;2023-01-16T13:54:35;3.30;99.90
11284;DHT22;5698;47.332;11.180;2023-01-16T13:57:08;3.30;99.90
11284;DHT22;5698;47.332;11.180;2023-01-16T13:59:43;3.20;99.90
11284;DHT22;5698;47.332;11.180;2023-01-16T14:02:38;3.10;99.90
11284;DHT22;5698;47.332;11.180;2023-01-16T14:05:28;3.10;99.90
11284;DHT22;5698;47.332;11.180;2023-01-16T14:08:28;3.00;99.90
11284;DHT22;5698;47.332;11.180;2023-01-16T14:11:39;3.00;99.90
11284;DHT22;5698;47.332;11.180;2023-01-16T14:14:33;2.60;99.90
11284;DHT22;5698;47.332;11.180;2023-01-16T14:17:19;2.30;99.90
11284;DHT22;5698;47.332;11.180;2023-01-16T14:19:55;2.10;99.90
11284;DHT22;5698;47.332;11.180;2023-01-16T14:22:26;2.10;99.90
11284;DHT22;5698;47.332;11.180;2023-01-16T14:25:20;2.10;99.90
11284;DHT22;5698;47.332;11.180;2023-01-16T14:27:53;2.10;99.90
11284;DHT22;5698;47.332;11.180;2023-01-16T14:30:26;1.90;99.90
11284;DHT22;5698;47.332;11.180;2023-01-16T14:32:58;1.90;99.90
11284;DHT22;5698;47.332;11.180;2023-01-16T14:35:27;1.60;99.90
11284;DHT22;5698;47.332;11.180;2023-01-16T14:38:00;1.40;99.90
11284;DHT22;5698;47.332;11.180;2023-01-16T14:40:30;1.30;99.90
11284;DHT22;5698;47.332;11.180;2023-01-16T14:43:25;1.30;99.90
11284;DHT22;5698;47.332;11.180;2023-01-16T14:46:25;1.50;99.90
11284;DHT22;5698;47.332;11.180;2023-01-16T14:49:39;1.60;99.90
11284;DHT22;5698;47.332;11.180;2023-01-16T14:52:46;1.60;99.90
11284;DHT22;5698;47.332;11.180;2023-01-16T14:55:36;1.60;99.90
11284;DHT22;5698;47.332;11.180;2023-01-16T14:58:11;1.60;99.90
11284;DHT22;5698;47.332;11.180;2023-01-16T15:00:39;1.60;99.90
11284;DHT22;5698;47.332;11.180;2023-01-16T15:03:12;1.70;99.90
11284;DHT22;5698;47.332;11.180;2023-01-16T15:05:45;1.70;99.90
11284;DHT22;5698;47.332;11.180;2023-01-16T15:08:22;1.70;99.90
11284;DHT22;5698;47.332;11.180;2023-01-16T15:10:51;1.60;99.90
11284;DHT22;5698;47.332;11.180;2023-01-16T15:13:21;1.60;99.90
11284;DHT22;5698;47.332;11.180;2023-01-16T15:15:52;1.70;99.90
11284;DHT22;5698;47.332;11.180;2023-01-16T15:18:20;1.50;99.90
11284;DHT22;5698;47.332;11.180;2023-01-16T15:21:11;1.40;99.90
11284;DHT22;5698;47.332;11.180;2023-01-16T15:24:03;1.40;99.90
11284;DHT22;5698;47.332;11.180;2023-01-16T15:26:43;1.30;99.90
11284;DHT22;5698;47.332;11.180;2023-01-16T15:29:50;1.20;99.90
11284;DHT22;5698;47.332;11.180;2023-01-16T15:32:18;1.40;99.90
11284;DHT22;5698;47.332;11.180;2023-01-16T15:35:03;1.20;99.90
11284;DHT22;5698;47.332;11.180;2023-01-16T15:37:33;1.20;99.90
11284;DHT22;5698;47.332;11.180;2023-01-16T15:40:00;1.10;99.90
11284;DHT22;5698;47.332;11.180;2023-01-16T15:42:28;1.00;99.90
11284;DHT22;5698;47.332;11.180;2023-01-16T15:45:18;1.00;99.90
11284;DHT22;5698;47.332;11.180;2023-01-16T15:48:21;0.80;99.90
11284;DHT22;5698;47.332;11.180;2023-01-16T15:50:57;0.80;99.90
11284;DHT22;5698;47.332;11.180;2023-01-16T15:53:29;0.70;99.90
11284;DHT22;5698;47.332;11.180;2023-01-16T15:56:01;0.60;99.90
11284;DHT22;5698;47.332;11.180;2023-01-16T15:58:28;0.60;99.90
11284;DHT22;5698;47.332;11.180;2023-01-16T16:00:57;0.50;99.90
11284;DHT22;5698;47.332;11.180;2023-01-16T16:03:28;0.40;99.90
11284;DHT22;5698;47.332;11.180;2023-01-16T16:06:02;0.30;99.90
11284;DHT22;5698;47.332;11.180;2023-01-16T16:08:32;0.40;99.90
11284;DHT22;5698;47.332;11.180;2023-01-16T16:11:01;0.30;99.90
11284;DHT22;5698;47.332;11.180;2023-01-16T16:13:48;0.20;99.90
11284;DHT22;5698;47.332;11.180;2023-01-16T16:16:17;0.10;99.90
11284;DHT22;5698;47.332;11.180;2023-01-16T16:19:02;0.20;99.90
11284;DHT22;5698;47.332;11.180;2023-01-16T16:21:34;-0.30;99.90
11284;DHT22;5698;47.332;11.180;2023-01-16T16:24:05;-0.40;99.90
11284;DHT22;5698;47.332;11.180;2023-01-16T16:26:38;-0.40;99.90
11284;DHT22;5698;47.332;11.180;2023-01-16T16:29:14;-0.30;99.90